createdAt,value
2023-04-22T00:01:18.196Z,4.60
2023-04-22T00:05:47.082Z,5.30
2023-04-22T00:23:07.375Z,5.30
2023-04-22T00:44:54.352Z,6.00
2023-04-22T00:49:22.810Z,4.90
2023-04-22T00:53:52.695Z,4.90
2023-04-22T01:11:07.128Z,5.10
2023-04-22T01:15:29.061Z,5.10
2023-04-22T01:37:15.867Z,5.50
2023-04-22T01:41:44.818Z,6.00
2023-04-22T01:46:13.764Z,5.40
2023-04-22T01:50:31.570Z,5.60
2023-04-22T02:16:32.154Z,5.80
2023-04-22T02:21:01.414Z,5.10
2023-04-22T02:25:30.118Z,4.90
2023-04-22T02:47:15.829Z,5.50
2023-04-22T02:51:45.177Z,5.70
2023-04-22T03:08:49.719Z,5.40
2023-04-22T03:13:18.212Z,5.60
2023-04-22T03:17:39.228Z,5.10
2023-04-22T03:43:28.653Z,5.50
2023-04-22T03:47:57.693Z,4.40
2023-04-22T03:52:16.967Z,5.20
2023-04-22T04:09:28.960Z,3.90
2023-04-22T04:13:58.258Z,4.00
2023-04-22T04:18:20.377Z,3.70
2023-04-22T04:22:42.165Z,4.40
2023-04-22T04:27:10.925Z,3.70
2023-04-22T04:45:27.967Z,4.50
2023-04-22T04:49:56.153Z,4.80
2023-04-22T05:06:57.384Z,3.90
2023-04-22T05:11:26.137Z,4.40
2023-04-22T05:15:37.993Z,4.30
2023-04-22T05:32:35.460Z,3.80
2023-04-22T05:37:04.458Z,4.00
2023-04-22T05:50:28.203Z,3.70
2023-04-22T05:54:57.429Z,4.20
2023-04-22T05:59:26.272Z,3.80
2023-04-22T06:03:55.264Z,4.50
2023-04-22T06:08:16.243Z,3.60
2023-04-22T06:12:44.826Z,4.40
2023-04-22T06:47:38.098Z,3.90
2023-04-22T06:52:06.992Z,4.10
2023-04-22T07:12:56.011Z,4.70
2023-04-22T07:16:40.722Z,4.20
2023-04-22T07:21:10.071Z,4.40
2023-04-22T07:25:34.169Z,4.40
2023-04-22T07:47:00.841Z,5.70
2023-04-22T07:51:30.055Z,5.20
2023-04-22T07:55:43.014Z,4.60
2023-04-22T08:00:13.052Z,5.00
2023-04-22T08:04:34.109Z,5.20
2023-04-22T08:09:04.353Z,5.00
2023-04-22T08:30:11.495Z,5.40
2023-04-22T08:34:43.954Z,6.30
2023-04-22T08:38:55.757Z,5.10
2023-04-22T08:43:12.993Z,6.50
2023-04-22T09:13:42.859Z,5.60
2023-04-22T09:18:14.732Z,5.60
2023-04-22T09:39:48.634Z,4.70
2023-04-22T09:44:09.590Z,4.60
2023-04-22T09:48:43.473Z,4.70
2023-04-22T09:53:00.363Z,4.60
2023-04-22T09:57:29.239Z,4.40
2023-04-22T10:31:14.471Z,4.10
2023-04-22T10:35:50.769Z,3.70
2023-04-22T10:40:12.983Z,2.70
2023-04-22T11:06:32.402Z,3.50
2023-04-22T11:10:41.527Z,3.60
2023-04-22T11:14:53.644Z,3.90
2023-04-22T11:19:04.461Z,3.70
2023-04-22T11:23:07.575Z,3.80
2023-04-22T11:48:15.893Z,3.20
2023-04-22T11:52:53.357Z,3.20
2023-04-22T11:56:53.502Z,2.70
2023-04-22T12:01:15.132Z,3.20
2023-04-22T12:05:33.742Z,2.70
2023-04-22T12:10:07.359Z,3.10
2023-04-22T12:14:32.349Z,3.00
2023-04-22T12:19:13.534Z,3.40
2023-04-22T12:23:19.850Z,2.80
2023-04-22T12:27:26.611Z,3.10
2023-04-22T12:53:26.481Z,23.40
2023-04-22T12:57:46.258Z,14.20
2023-04-22T13:02:15.482Z,3.60
2023-04-22T13:06:33.819Z,5.80
2023-04-22T13:10:55.699Z,6.70
2023-04-22T13:32:28.432Z,3.50
2023-04-22T13:36:57.689Z,3.20
2023-04-22T13:41:06.193Z,3.40
2023-04-22T13:49:13.876Z,5.20
2023-04-22T13:53:42.606Z,2.90
2023-04-22T13:57:35.535Z,4.00
2023-04-22T14:01:22.223Z,3.80
2023-04-22T14:04:18.737Z,3.50
2023-04-22T14:07:51.151Z,3.20
2023-04-22T14:11:22.468Z,3.50
2023-04-22T14:15:34.039Z,3.60
2023-04-22T14:20:02.716Z,3.40
2023-04-22T14:23:38.005Z,3.20
2023-04-22T14:27:59.028Z,3.80
2023-04-22T14:32:28.140Z,3.20
2023-04-22T14:36:43.376Z,3.20
2023-04-22T14:40:52.170Z,3.30
2023-04-22T14:45:10.079Z,3.10
2023-04-22T14:49:19.309Z,3.50
2023-04-22T15:26:49.541Z,13.00
2023-04-22T15:30:58.163Z,4.70
2023-04-22T15:35:05.678Z,3.40
2023-04-22T16:00:44.182Z,3.70
2023-04-22T16:05:13.788Z,6.40
2023-04-22T16:09:35.255Z,3.90
2023-04-22T16:26:55.065Z,3.50
2023-04-22T16:31:25.138Z,4.10
2023-04-22T16:35:48.250Z,3.90
2023-04-22T16:57:34.958Z,3.90
2023-04-22T17:02:03.896Z,3.30
2023-04-22T17:06:32.989Z,3.10
2023-04-22T17:11:02.384Z,3.20
2023-04-22T17:15:32.569Z,3.50
2023-04-22T17:32:52.737Z,4.50
2023-04-22T17:37:21.712Z,4.30
2023-04-22T17:41:51.756Z,3.90
2023-04-22T18:03:40.769Z,4.10
2023-04-22T18:08:10.318Z,4.40
2023-04-22T18:25:30.995Z,15.10
2023-04-22T18:29:59.884Z,12.10
2023-04-22T18:51:23.708Z,6.70
2023-04-22T18:55:52.710Z,12.70
2023-04-22T19:00:21.948Z,11.40
2023-04-22T19:04:52.185Z,8.40
2023-04-22T19:22:18.382Z,8.20
2023-04-22T19:26:47.335Z,11.10
2023-04-22T19:31:16.851Z,7.50
2023-04-22T19:53:07.528Z,9.70
2023-04-22T19:57:37.680Z,7.80
2023-04-22T20:14:57.725Z,9.70
2023-04-22T20:19:28.423Z,8.30
2023-04-22T20:41:14.340Z,8.30
2023-04-22T20:45:35.628Z,9.80
2023-04-22T20:50:04.496Z,8.90
2023-04-22T20:54:32.939Z,10.20
2023-04-22T20:58:41.470Z,7.00
2023-04-22T21:16:01.981Z,8.00
2023-04-22T21:34:30.436Z,12.00
2023-04-22T21:38:59.087Z,29.30
2023-04-22T21:43:29.095Z,21.20
2023-04-22T22:00:50.227Z,12.20
2023-04-22T22:05:19.498Z,8.50
2023-04-22T22:32:43.482Z,8.20
2023-04-22T22:37:02.063Z,7.30
2023-04-22T22:41:31.703Z,6.70
2023-04-22T22:58:42.819Z,6.20
2023-04-22T23:03:11.670Z,6.40
2023-04-22T23:20:36.801Z,7.60
2023-04-22T23:25:05.836Z,5.90
2023-04-22T23:42:16.666Z,7.40
2023-04-22T23:46:45.485Z,5.90
